createdAt,value
2022-11-08T00:00:08.102Z,96.08
2022-11-08T00:03:10.064Z,96.12
2022-11-08T00:06:14.084Z,96.20
2022-11-08T00:09:14.411Z,96.40
2022-11-08T00:12:14.942Z,96.60
2022-11-08T00:14:56.761Z,96.60
2022-11-08T00:17:38.733Z,96.58
2022-11-08T00:20:20.527Z,96.60
2022-11-08T00:23:02.321Z,96.75
2022-11-08T00:25:44.115Z,96.70
2022-11-08T00:28:25.911Z,96.57
2022-11-08T00:31:08.314Z,96.53
2022-11-08T00:33:50.107Z,96.55
2022-11-08T00:36:31.901Z,96.77
2022-11-08T00:39:13.694Z,96.71
2022-11-08T00:41:55.418Z,96.81
2022-11-08T00:44:38.406Z,96.75
2022-11-08T00:47:20.098Z,96.84
2022-11-08T00:50:01.900Z,96.63
2022-11-08T00:52:43.685Z,96.95
2022-11-08T00:55:25.581Z,96.99
2022-11-08T00:58:07.374Z,97.02
2022-11-08T01:00:49.202Z,97.16
2022-11-08T01:03:31.063Z,97.03
2022-11-08T01:06:14.699Z,97.10
2022-11-08T01:08:57.107Z,97.29
2022-11-08T01:11:40.134Z,97.25
2022-11-08T01:14:21.925Z,97.51
2022-11-08T01:17:03.715Z,97.41
2022-11-08T01:19:45.508Z,97.43
2022-11-08T01:22:27.201Z,97.55
2022-11-08T01:25:09.506Z,97.53
2022-11-08T01:27:51.402Z,97.65
2022-11-08T01:30:37.646Z,97.62
2022-11-08T01:33:19.392Z,97.63
2022-11-08T01:36:01.193Z,97.79
2022-11-08T01:38:43.285Z,97.91
2022-11-08T01:41:26.819Z,97.81
2022-11-08T01:44:16.264Z,97.84
2022-11-08T01:46:58.293Z,97.95
2022-11-08T01:49:46.348Z,98.09
2022-11-08T01:52:33.870Z,98.01
2022-11-08T01:55:22.002Z,98.20
2022-11-08T01:58:10.793Z,98.22
2022-11-08T02:00:53.440Z,98.24
2022-11-08T02:03:36.288Z,98.29
2022-11-08T02:06:18.861Z,98.41
2022-11-08T02:09:03.972Z,98.44
2022-11-08T02:11:48.285Z,98.36
2022-11-08T02:14:31.038Z,98.27
2022-11-08T02:17:12.935Z,98.30
2022-11-08T02:19:54.728Z,98.13
2022-11-08T02:22:45.533Z,98.02
2022-11-08T02:25:27.429Z,97.96
2022-11-08T02:28:09.222Z,98.02
2022-11-08T02:30:50.915Z,97.75
2022-11-08T02:33:33.424Z,97.86
2022-11-08T02:36:21.595Z,97.88
2022-11-08T02:39:03.768Z,97.89
2022-11-08T02:41:45.579Z,97.88
2022-11-08T02:44:27.333Z,98.11
2022-11-08T02:47:09.250Z,98.25
2022-11-08T02:49:51.351Z,98.45
2022-11-08T02:52:33.044Z,98.53
2022-11-08T02:55:14.835Z,98.54
2022-11-08T02:57:57.556Z,98.73
2022-11-08T03:00:40.070Z,98.68
2022-11-08T03:03:21.854Z,98.39
2022-11-08T03:06:03.752Z,97.95
2022-11-08T03:08:45.439Z,97.66
2022-11-08T03:11:27.952Z,97.65
2022-11-08T03:14:09.743Z,97.58
2022-11-08T03:16:51.433Z,97.64
2022-11-08T03:19:33.226Z,97.86
2022-11-08T03:22:15.738Z,98.07
2022-11-08T03:24:57.534Z,98.51
2022-11-08T03:27:39.530Z,98.84
2022-11-08T03:30:21.834Z,99.43
2022-11-08T03:33:04.241Z,99.91
2022-11-08T03:35:46.034Z,100.00
2022-11-08T03:38:27.831Z,100.00
2022-11-08T03:41:09.521Z,100.00
2022-11-08T03:43:51.313Z,100.00
2022-11-08T03:46:33.105Z,100.00
2022-11-08T03:49:14.898Z,100.00
2022-11-08T03:51:56.591Z,100.00
2022-11-08T03:54:38.383Z,100.00
2022-11-08T03:57:20.180Z,100.00
2022-11-08T04:00:01.912Z,100.00
2022-11-08T04:02:55.153Z,100.00
2022-11-08T04:05:36.923Z,100.00
2022-11-08T04:08:18.865Z,100.00
2022-11-08T04:11:19.555Z,100.00
2022-11-08T04:14:20.293Z,100.00
2022-11-08T04:17:01.983Z,100.00
2022-11-08T04:20:02.463Z,100.00
2022-11-08T04:22:44.207Z,100.00
2022-11-08T04:25:27.313Z,100.00
2022-11-08T04:28:11.787Z,100.00
2022-11-08T04:30:59.218Z,100.00
2022-11-08T04:33:41.520Z,100.00
2022-11-08T04:36:23.311Z,100.00
2022-11-08T04:39:05.014Z,100.00
2022-11-08T04:41:46.797Z,100.00
2022-11-08T04:44:28.463Z,100.00
2022-11-08T04:47:10.383Z,100.00
2022-11-08T04:49:52.073Z,100.00
2022-11-08T04:52:33.765Z,100.00
2022-11-08T04:55:15.557Z,100.00
2022-11-08T04:57:59.195Z,100.00
2022-11-08T05:00:40.885Z,100.00
2022-11-08T05:03:22.679Z,100.00
2022-11-08T05:06:07.440Z,100.00
2022-11-08T05:08:49.953Z,100.00
2022-11-08T05:11:31.745Z,100.00
2022-11-08T05:14:13.640Z,100.00
2022-11-08T05:16:55.472Z,100.00
2022-11-08T05:19:55.865Z,100.00
2022-11-08T05:22:56.602Z,100.00
2022-11-08T05:25:39.110Z,100.00
2022-11-08T05:28:22.134Z,100.00
2022-11-08T05:31:04.371Z,100.00
2022-11-08T05:33:46.438Z,100.00
2022-11-08T05:36:28.950Z,100.00
2022-11-08T05:39:10.740Z,100.00
2022-11-08T05:41:52.435Z,100.00
2022-11-08T05:44:34.226Z,100.00
2022-11-08T05:47:16.019Z,100.00
2022-11-08T05:49:58.018Z,100.00
2022-11-08T05:52:40.321Z,100.00
2022-11-08T05:55:22.218Z,100.00
2022-11-08T05:58:04.319Z,100.00
2022-11-08T06:00:46.009Z,100.00
2022-11-08T06:03:28.529Z,100.00
2022-11-08T06:06:16.354Z,100.00
2022-11-08T06:08:58.150Z,100.00
2022-11-08T06:11:40.043Z,100.00
2022-11-08T06:14:21.939Z,100.00
2022-11-08T06:17:03.732Z,100.00
2022-11-08T06:19:45.730Z,100.00
2022-11-08T06:22:31.657Z,100.00
2022-11-08T06:25:13.413Z,100.00
2022-11-08T06:27:55.207Z,100.00
2022-11-08T06:30:37.000Z,100.00
2022-11-08T06:33:20.717Z,100.00
2022-11-08T06:36:03.255Z,100.00
2022-11-08T06:38:45.041Z,100.00
2022-11-08T06:41:28.050Z,100.00
2022-11-08T06:44:09.858Z,100.00
2022-11-08T06:46:51.651Z,100.00
2022-11-08T06:49:33.400Z,100.00
2022-11-08T06:52:15.136Z,100.00
2022-11-08T06:54:56.931Z,100.00
2022-11-08T06:57:38.655Z,100.00
2022-11-08T07:00:20.834Z,100.00
2022-11-08T07:03:04.089Z,100.00
2022-11-08T07:05:46.051Z,100.00
2022-11-08T07:08:27.841Z,100.00
2022-11-08T07:11:10.350Z,100.00
2022-11-08T07:13:52.041Z,100.00
2022-11-08T07:16:33.835Z,100.00
2022-11-08T07:19:15.729Z,100.00
2022-11-08T07:21:57.524Z,100.00
2022-11-08T07:24:39.317Z,100.00
2022-11-08T07:27:21.112Z,100.00
2022-11-08T07:30:04.030Z,100.00
2022-11-08T07:32:47.927Z,100.00
2022-11-08T07:35:30.792Z,100.00
2022-11-08T07:38:15.109Z,100.00
2022-11-08T07:41:02.479Z,100.00
2022-11-08T07:43:45.287Z,100.00
2022-11-08T07:46:32.200Z,100.00
2022-11-08T07:49:15.476Z,100.00
2022-11-08T07:51:58.038Z,100.00
2022-11-08T07:54:40.401Z,100.00
2022-11-08T07:57:23.677Z,100.00
2022-11-08T08:00:09.558Z,100.00
2022-11-08T08:02:59.556Z,100.00
2022-11-08T08:05:44.596Z,100.00
2022-11-08T08:08:27.848Z,100.00
2022-11-08T08:11:11.385Z,100.00
2022-11-08T08:13:56.618Z,100.00
2022-11-08T08:16:38.940Z,99.99
2022-11-08T08:19:20.650Z,99.41
2022-11-08T08:22:02.341Z,99.39
2022-11-08T08:24:44.136Z,97.35
2022-11-08T08:27:25.928Z,97.26
2022-11-08T08:30:08.438Z,99.81
2022-11-08T08:33:08.335Z,100.00
2022-11-08T08:35:54.249Z,99.57
2022-11-08T08:38:40.027Z,96.02
2022-11-08T08:41:27.101Z,93.68
2022-11-08T08:44:12.707Z,90.93
2022-11-08T08:46:55.857Z,88.74
2022-11-08T08:49:37.556Z,89.46
2022-11-08T08:52:19.649Z,88.47
2022-11-08T08:55:02.080Z,88.80
2022-11-08T08:57:52.417Z,87.12
2022-11-08T09:03:40.807Z,88.49
2022-11-08T09:06:24.829Z,87.64
2022-11-08T09:09:08.151Z,86.81
2022-11-08T09:11:52.759Z,85.11
2022-11-08T09:14:35.503Z,83.86
2022-11-08T09:17:17.917Z,83.48
2022-11-08T09:20:00.811Z,83.97
2022-11-08T09:22:43.965Z,83.41
2022-11-08T09:25:33.215Z,83.40
2022-11-08T09:28:17.108Z,83.58
2022-11-08T09:31:04.466Z,83.27
2022-11-08T09:33:50.689Z,83.60
2022-11-08T09:36:33.544Z,82.83
2022-11-08T09:39:16.592Z,81.47
2022-11-08T09:42:15.422Z,80.94
2022-11-08T09:45:13.632Z,79.54
2022-11-08T09:48:05.194Z,78.38
2022-11-08T09:50:49.449Z,77.12
2022-11-08T09:53:47.632Z,77.86
2022-11-08T09:56:35.974Z,78.11
2022-11-08T09:59:26.895Z,78.64
2022-11-08T10:02:27.272Z,78.15
2022-11-08T10:05:16.202Z,78.90
2022-11-08T10:08:09.166Z,77.13
2022-11-08T10:11:08.519Z,76.45
2022-11-08T10:14:19.454Z,76.91
2022-11-08T10:17:31.525Z,75.42
2022-11-08T10:20:24.964Z,75.07
2022-11-08T10:23:12.696Z,76.37
2022-11-08T10:26:05.460Z,76.21
2022-11-08T10:29:16.070Z,77.83
2022-11-08T10:32:12.861Z,76.75
2022-11-08T10:35:02.845Z,76.77
2022-11-08T10:37:44.896Z,75.59
2022-11-08T10:40:37.696Z,75.93
2022-11-08T10:43:30.139Z,75.31
2022-11-08T10:46:26.683Z,73.58
2022-11-08T10:49:19.738Z,73.26
2022-11-08T10:52:18.937Z,73.89
2022-11-08T10:55:03.199Z,73.85
2022-11-08T10:57:48.674Z,73.62
2022-11-08T11:00:32.919Z,72.52
2022-11-08T11:03:14.543Z,73.72
2022-11-08T11:06:01.014Z,73.57
2022-11-08T11:08:54.173Z,73.38
2022-11-08T11:11:38.541Z,71.67
2022-11-08T11:14:23.697Z,71.61
2022-11-08T11:17:15.486Z,71.27
2022-11-08T11:19:58.138Z,71.58
2022-11-08T11:22:46.177Z,71.47
2022-11-08T11:25:28.722Z,72.03
2022-11-08T11:28:14.226Z,71.69
2022-11-08T11:31:15.232Z,70.98
2022-11-08T11:33:58.541Z,71.75
2022-11-08T11:36:40.438Z,72.53
2022-11-08T11:39:32.677Z,72.08
2022-11-08T11:45:36.445Z,72.58
2022-11-08T11:48:24.546Z,71.99
2022-11-08T11:51:10.732Z,71.89
2022-11-08T11:53:52.739Z,72.47
2022-11-08T11:56:48.872Z,72.45
2022-11-08T12:00:08.550Z,73.49
2022-11-08T12:03:07.444Z,72.72
2022-11-08T12:06:12.925Z,72.85
2022-11-08T12:09:28.304Z,72.86
2022-11-08T12:12:48.877Z,73.53
2022-11-08T12:16:01.390Z,73.89
2022-11-08T12:18:57.328Z,74.43
2022-11-08T12:21:48.450Z,74.69
2022-11-08T12:24:44.018Z,75.31
2022-11-08T12:27:40.685Z,75.10
2022-11-08T12:30:32.241Z,75.51
2022-11-08T12:33:23.011Z,76.07
2022-11-08T12:36:13.510Z,76.21
2022-11-08T12:39:24.098Z,76.46
2022-11-08T12:42:05.767Z,76.49
2022-11-08T12:45:16.442Z,76.68
2022-11-08T12:48:06.832Z,76.80
2022-11-08T12:50:48.524Z,76.36
2022-11-08T12:53:43.289Z,76.88
2022-11-08T12:56:38.839Z,77.21
2022-11-08T12:59:37.731Z,77.24
2022-11-08T13:02:26.767Z,76.62
2022-11-08T13:05:27.635Z,76.83
2022-11-08T13:08:35.438Z,77.57
2022-11-08T13:11:27.458Z,77.68
2022-11-08T13:14:18.041Z,77.79
2022-11-08T13:17:09.081Z,77.89
2022-11-08T13:20:00.647Z,78.14
2022-11-08T13:22:57.781Z,78.43
2022-11-08T13:25:41.561Z,78.52
2022-11-08T13:28:40.697Z,78.66
2022-11-08T13:31:33.349Z,78.61
2022-11-08T13:34:30.394Z,78.60
2022-11-08T13:37:27.650Z,78.70
2022-11-08T13:40:44.054Z,78.96
2022-11-08T13:43:31.480Z,79.38
2022-11-08T13:46:29.796Z,79.71
2022-11-08T13:49:20.053Z,79.77
2022-11-08T13:52:40.042Z,79.98
2022-11-08T13:55:43.749Z,80.22
2022-11-08T13:58:36.233Z,80.38
2022-11-08T14:01:18.403Z,80.80
2022-11-08T14:04:00.700Z,81.12
2022-11-08T14:07:12.559Z,81.42
2022-11-08T14:09:59.791Z,81.75
2022-11-08T14:12:47.787Z,82.04
2022-11-08T14:15:35.796Z,82.18
2022-11-08T14:18:20.460Z,82.45
2022-11-08T14:21:05.024Z,82.80
2022-11-08T14:23:51.024Z,82.92
2022-11-08T14:26:32.806Z,83.15
2022-11-08T14:29:17.665Z,83.34
2022-11-08T14:32:19.538Z,83.49
2022-11-08T14:35:33.886Z,83.81
2022-11-08T14:38:15.721Z,83.99
2022-11-08T14:41:03.102Z,84.43
2022-11-08T14:43:46.940Z,84.68
2022-11-08T14:46:32.222Z,84.79
2022-11-08T14:49:14.017Z,84.95
2022-11-08T14:52:14.371Z,85.18
2022-11-08T14:55:04.431Z,85.55
2022-11-08T14:57:47.260Z,85.55
2022-11-08T15:00:29.041Z,85.86
2022-11-08T15:03:16.240Z,86.26
2022-11-08T15:06:01.542Z,86.79
2022-11-08T15:08:49.239Z,86.72
2022-11-08T15:11:34.332Z,86.50
2022-11-08T15:14:21.702Z,87.10
2022-11-08T15:17:04.091Z,87.45
2022-11-08T15:19:46.886Z,88.14
2022-11-08T15:22:34.806Z,88.39
2022-11-08T15:25:43.447Z,88.20
2022-11-08T15:28:31.736Z,88.18
2022-11-08T15:31:14.147Z,88.27
2022-11-08T15:33:59.377Z,88.57
2022-11-08T15:36:41.197Z,88.73
2022-11-08T15:39:39.346Z,88.98
2022-11-08T15:42:23.615Z,89.55
2022-11-08T15:45:23.033Z,89.64
2022-11-08T15:48:29.266Z,89.99
2022-11-08T15:51:12.497Z,90.58
2022-11-08T15:53:54.289Z,90.95
2022-11-08T15:57:08.068Z,91.19
2022-11-08T15:59:54.024Z,91.85
2022-11-08T16:02:35.817Z,92.30
2022-11-08T16:05:20.148Z,92.51
2022-11-08T16:08:01.862Z,92.58
2022-11-08T16:10:45.191Z,92.48
2022-11-08T16:13:34.800Z,92.68
2022-11-08T16:16:18.221Z,93.48
2022-11-08T16:19:00.301Z,93.95
2022-11-08T16:21:41.991Z,93.90
2022-11-08T16:24:24.606Z,93.79
2022-11-08T16:27:07.113Z,94.01
2022-11-08T16:29:48.906Z,94.62
2022-11-08T16:32:30.597Z,95.00
2022-11-08T16:35:12.390Z,94.98
2022-11-08T16:37:54.490Z,94.68
2022-11-08T16:40:36.284Z,94.78
2022-11-08T16:43:18.077Z,95.00
2022-11-08T16:46:06.314Z,95.63
2022-11-08T16:48:54.401Z,97.16
2022-11-08T16:51:36.095Z,97.49
2022-11-08T16:54:21.494Z,97.62
2022-11-08T16:57:28.401Z,97.91
2022-11-08T17:00:05.909Z,98.17
2022-11-08T17:02:52.821Z,98.11
2022-11-08T17:05:34.613Z,98.21
2022-11-08T17:08:17.273Z,97.90
2022-11-08T17:10:59.533Z,97.70
2022-11-08T17:13:41.325Z,97.74
2022-11-08T17:16:23.322Z,98.00
2022-11-08T17:19:05.524Z,98.07
2022-11-08T17:21:47.321Z,97.92
2022-11-08T17:24:30.239Z,98.04
2022-11-08T17:27:12.032Z,97.98
2022-11-08T17:29:54.158Z,97.75
2022-11-08T17:32:37.085Z,97.84
2022-11-08T17:35:19.151Z,97.80
2022-11-08T17:38:01.769Z,97.75
2022-11-08T17:40:43.659Z,97.71
2022-11-08T17:43:25.453Z,97.39
2022-11-08T17:46:08.066Z,97.14
2022-11-08T17:48:49.961Z,97.36
2022-11-08T17:51:31.759Z,97.34
2022-11-08T17:54:13.445Z,97.24
2022-11-08T17:56:55.445Z,97.68
2022-11-08T17:59:37.390Z,98.41
2022-11-08T18:02:19.311Z,98.92
2022-11-08T18:05:05.948Z,99.12
2022-11-08T18:07:47.941Z,99.24
2022-11-08T18:10:29.942Z,99.41
2022-11-08T18:13:12.142Z,99.55
2022-11-08T18:15:53.939Z,99.77
2022-11-08T18:18:35.833Z,99.92
2022-11-08T18:21:19.263Z,100.00
2022-11-08T18:24:01.159Z,100.00
2022-11-08T18:26:43.060Z,100.00
2022-11-08T18:29:24.774Z,100.00
2022-11-08T18:32:06.643Z,100.00
2022-11-08T18:34:49.049Z,100.00
2022-11-08T18:37:30.843Z,99.99
2022-11-08T18:40:13.464Z,99.83
2022-11-08T18:42:55.248Z,99.24
2022-11-08T18:45:37.041Z,99.21
2022-11-08T18:48:18.836Z,99.06
2022-11-08T18:51:00.644Z,98.97
2022-11-08T18:53:43.147Z,98.93
2022-11-08T18:56:24.931Z,98.61
2022-11-08T18:59:06.829Z,98.24
2022-11-08T19:01:48.697Z,98.19
2022-11-08T19:04:30.721Z,98.42
2022-11-08T19:07:12.750Z,98.70
2022-11-08T19:09:54.513Z,98.63
2022-11-08T19:12:36.305Z,99.50
2022-11-08T19:15:18.510Z,100.00
2022-11-08T19:18:00.306Z,100.00
2022-11-08T19:20:42.302Z,100.00
2022-11-08T19:23:25.168Z,100.00
2022-11-08T19:26:10.497Z,100.00
2022-11-08T19:28:55.815Z,100.00
2022-11-08T19:31:39.202Z,100.00
2022-11-08T19:34:21.303Z,100.00
2022-11-08T19:37:03.505Z,100.00
2022-11-08T19:39:45.504Z,100.00
2022-11-08T19:42:27.400Z,100.00
2022-11-08T19:45:10.118Z,100.00
2022-11-08T19:47:53.349Z,100.00
2022-11-08T19:50:35.241Z,100.00
2022-11-08T19:53:17.030Z,100.00
2022-11-08T19:56:03.259Z,100.00
2022-11-08T19:58:45.736Z,100.00
2022-11-08T20:01:40.428Z,100.00
2022-11-08T20:04:22.327Z,100.00
2022-11-08T20:07:04.111Z,100.00
2022-11-08T20:09:47.143Z,100.00
2022-11-08T20:12:31.803Z,99.90
2022-11-08T20:15:14.215Z,99.71
2022-11-08T20:17:56.315Z,99.42
2022-11-08T20:20:40.629Z,99.55
2022-11-08T20:23:25.467Z,99.31
2022-11-08T20:26:08.655Z,99.18
2022-11-08T20:28:56.420Z,99.44
2022-11-08T20:31:42.282Z,99.94
2022-11-08T20:34:25.820Z,100.00
2022-11-08T20:37:08.015Z,100.00
2022-11-08T20:39:52.009Z,100.00
2022-11-08T20:42:34.571Z,100.00
2022-11-08T20:45:16.469Z,100.00
2022-11-08T20:47:58.362Z,100.00
2022-11-08T20:50:40.158Z,100.00
2022-11-08T20:53:21.951Z,100.00
2022-11-08T20:56:16.029Z,100.00
2022-11-08T20:58:58.238Z,100.00
2022-11-08T21:01:39.996Z,100.00
2022-11-08T21:04:22.023Z,100.00
2022-11-08T21:10:35.890Z,100.00
2022-11-08T21:13:10.757Z,100.00
2022-11-08T21:15:54.048Z,100.00
2022-11-08T21:18:37.788Z,100.00
2022-11-08T21:21:22.655Z,100.00
2022-11-08T21:24:04.674Z,100.00
2022-11-08T21:26:46.550Z,100.00
2022-11-08T21:29:29.672Z,100.00
2022-11-08T21:32:11.422Z,100.00
2022-11-08T21:34:53.155Z,100.00
2022-11-08T21:37:34.948Z,100.00
2022-11-08T21:40:17.049Z,100.00
2022-11-08T21:42:59.354Z,100.00
2022-11-08T21:45:41.781Z,100.00
2022-11-08T21:48:23.760Z,100.00
2022-11-08T21:51:36.262Z,100.00
2022-11-08T21:54:19.092Z,100.00
2022-11-08T21:57:00.883Z,100.00
2022-11-08T21:59:42.677Z,100.00
2022-11-08T22:02:24.473Z,100.00
2022-11-08T22:05:07.291Z,100.00
2022-11-08T22:07:49.183Z,100.00
2022-11-08T22:10:30.875Z,100.00
2022-11-08T22:13:12.978Z,100.00
2022-11-08T22:15:55.179Z,100.00
2022-11-08T22:18:58.721Z,100.00
2022-11-08T22:21:45.368Z,100.00
2022-11-08T22:24:31.072Z,100.00
2022-11-08T22:27:13.584Z,100.00
2022-11-08T22:29:55.274Z,100.00
2022-11-08T22:32:37.171Z,100.00
2022-11-08T22:35:19.475Z,100.00
2022-11-08T22:38:01.681Z,100.00
2022-11-08T22:40:46.090Z,100.00
2022-11-08T22:43:27.824Z,100.00
2022-11-08T22:46:10.130Z,100.00
2022-11-08T22:48:52.127Z,100.00
2022-11-08T22:51:34.023Z,100.00
2022-11-08T22:54:15.818Z,100.00
2022-11-08T22:56:57.917Z,100.00
2022-11-08T22:59:39.710Z,100.00
2022-11-08T23:02:21.536Z,100.00
2022-11-08T23:05:03.401Z,100.00
2022-11-08T23:07:45.193Z,100.00
2022-11-08T23:10:26.988Z,100.00
2022-11-08T23:13:27.216Z,100.00
2022-11-08T23:16:29.076Z,100.00
2022-11-08T23:19:35.445Z,100.00
2022-11-08T23:22:36.862Z,100.00
2022-11-08T23:25:18.591Z,100.00
2022-11-08T23:28:19.123Z,100.00
2022-11-08T23:31:22.627Z,100.00
2022-11-08T23:34:05.239Z,100.00
2022-11-08T23:36:47.032Z,100.00
2022-11-08T23:39:29.849Z,100.00
2022-11-08T23:42:30.383Z,100.00
2022-11-08T23:45:12.072Z,100.00
2022-11-08T23:47:53.865Z,100.00
2022-11-08T23:50:35.683Z,100.00
2022-11-08T23:53:18.635Z,100.00
2022-11-08T23:56:00.781Z,100.00
2022-11-08T23:58:42.586Z,100.00
